ЛЕТНЫЕ ШКОЛЫ

Flying Academy США

Flying Academy США

Майами, Флорида        Температура 25 °C

Flying Academy  ЕВРОПА

Flying Academy ЕВРОПА

Прага, Брно, Чешская Республика        Температура 26 °C


Новости

Time Building Miami - 82$/ лётный час

Time Building является главным ресурсом для приобретения опыта полётов, особенно для молодых профессиональных пилотов, которые готовятся к работе в авиалиниях.
Высокий уровень лётной подготовки это большой плюс при прохождении собеседования. Для того, чтобы поддержать пилотов с небольшим количеством лётных часов на их пути к капитанскому креслу, Flying Academy предлагает пакет налёта часов в Майами по сниженной цене!
При покупке пакета от 101 лётного часа, вдобавок к отличной погоде и невероятному опыту, вам предоставляется Cessna 152 по привлекательной цене 82$/ лётный час.
Стоимость топлива уже включена. В дополнение к сказанному выше, наши инструкторы будут рады ознакомить вас с местностью, воздушным пространством и помочь в планировании полетов. Вам также посоветуют красивые места для полетов, чтобы сделать Ваше время в Майми по-настоящему незабываемым.

читайте дальше >>

Flying academy объявляет Видео соревнование среди всех студентов

Нам хорошо известно, что наши студенты- креативные люди, увлеченные авиацией. Настало время показать это всему миру.
Снимите короткое видео, ответьте на вопрос " почему я хочу стать пилотом?" и выиграйте 1000€. Поделитесь своим опытом с другими на канале Flying academy на YouTube.
Это могут быть как съемки с полетов во время Time Building, так и обучающее видео для Ваших коллег. Вас ничего не ограничивает в процессе создания видео. Вы также можете принимать участие в конкурсе с более, чем одной творческой работой. Победитель будет выбран согласно количество голосов 30 ноября 2016 года.
Условия конкурса:
  • Вы студент Flying academy.
  • Съемки происходили на самолетах и в помещениях Flying academy.
  • Продолжительность видео более 1 минуты Количество видео не ограничено.
Внимание! Безопасность полётов превыше всего! Вы будете квалифицированы к участию в конкурсе только при условии соблюдения всех правил безопасности и требований выполнения полётов. 

читайте дальше >>

Теперь у вас есть возможность получить опыт полётов в США, во время прохождения курса 0-ATPL

Flying Academy предлагает своим студентам возможность летать первую часть курса  0-ATPL в Маями, штат Флорида. Курс “0-ATPL with US experience” (0-ATPL с опытом налета часов в Америке) это модульный курс обучения, во время которого вы получите Лицензию Частного Пилота и налёт часов в США, а остаток обучения, включающий в себя получение лицензии Линейного Пилота ATPL по стандартам EASA. По окончании курса вы получите лицензию линейного пилота, с квалификацией для полётов по приборам и полётов на многодвигательных самолётах.
Пилоты с данной лицензией уполномочены исполнять роль КВС (командира воздушного судна) в авиалиниях и других авиакомпаниях.

читайте дальше >>

archive

Blog

Time building в Майами это отличный способ улучшить навыки пилотирования и хорошо провести свободное время

Милан, наш студент из Чехии, только что вернулся из Майами, где он провёл 28 дней и налетал 75 часов по программе Time Building. Для него это был не только профессиональный опыт, но и отличные семейные каникулы. "Вместе с моей женой мы побывали в Naples, Stuart, Tampa, центре космических запусков NASA, на студии Universal в Orlando и в многих других местах на побережье. Это отличная возможность как насладиться полетами, так и посетить туристические места штата Флорида.
Вы можете найти больше о Милане и его времени в Майами в нашем блоге.

читайте дальше >>

archive

Актуальная погода

LKKV

LKKV 241018Z VRB02KT 9999 VCTS FEW017CB BKN021 21/17 Q1020 RMK REG QNH 1016

LKPR

LKPR 241000Z 08003KT 030V180 9999 SCT015 BKN040 22/18 Q1019 NOSIG

LKTB

LKTB 241000Z 22004KT 170V320 9999 FEW031 BKN034 25/18 Q1018 NOSIG